Time;durP1;ratioP1;P1;durP2;ratioP2;P2;SDS_P1;SDS_P2;PMS_P1;PMS_P2;Temp;Humidity;BMP_temperature;BMP_pressure;BME280_temperature;BME280_humidity;BME280_pressure;Samples;Min_cycle;Max_cycle;Signal;HPM_P1;HPM_P2
2022/06/06 00:01:59;;;;;;;3.80;1.67;;;19.70;78.70;;;;;;4889294;29;20479;-75
2022/06/06 00:04:30;;;;;;;3.73;1.83;;;19.70;78.70;;;;;;4875101;29;20488;-75
2022/06/06 00:06:59;;;;;;;3.93;1.53;;;19.70;78.70;;;;;;4880274;29;20500;-75
2022/06/06 00:09:28;;;;;;;4.60;1.77;;;19.70;78.70;;;;;;4885685;29;20466;-76
2022/06/06 00:11:57;;;;;;;4.67;2.30;;;19.80;78.70;;;;;;4888986;29;20523;-74
2022/06/06 00:14:25;;;;;;;5.33;2.00;;;19.80;78.70;;;;;;4885382;29;20487;-77
2022/06/06 00:16:53;;;;;;;4.63;2.50;;;19.80;78.70;;;;;;4888638;29;20537;-75
2022/06/06 00:19:21;;;;;;;4.83;2.20;;;19.80;78.80;;;;;;4864426;29;20469;-75
2022/06/06 00:21:51;;;;;;;5.00;1.80;;;19.80;78.80;;;;;;4885591;29;20470;-75
2022/06/06 00:24:19;;;;;;;4.73;2.43;;;19.80;78.80;;;;;;4885294;29;20456;-75
2022/06/06 00:26:47;;;;;;;4.43;2.30;;;19.80;78.80;;;;;;4883740;29;20480;-75
2022/06/06 00:29:18;;;;;;;8.47;2.33;;;19.80;78.80;;;;;;4872028;29;20464;-75
2022/06/06 00:34:51;;;;;;;4.33;1.70;;;19.80;78.80;;;;;;4885699;29;20497;-76
2022/06/06 00:37:25;;;;;;;4.30;2.10;;;19.80;78.80;;;;;;4885957;29;20496;-76
2022/06/06 00:39:54;;;;;;;5.13;2.27;;;19.80;78.80;;;;;;4890036;29;20465;-75
2022/06/06 00:42:25;;;;;;;4.53;2.40;;;19.70;78.80;;;;;;4889430;29;20467;-75
2022/06/06 00:45:26;;;;;;;4.53;2.07;;;19.70;78.80;;;;;;4890377;29;20470;-76
2022/06/06 00:47:58;;;;;;;5.37;1.97;;;19.70;78.80;;;;;;4890094;29;20495;-75
2022/06/06 00:50:33;;;;;;;4.93;2.57;;;19.70;78.90;;;;;;4887065;29;20542;-75
2022/06/06 00:53:04;;;;;;;5.97;2.00;;;19.60;78.90;;;;;;4879247;29;20492;-75
2022/06/06 00:55:37;;;;;;;5.13;2.30;;;19.70;78.90;;;;;;4870539;29;20472;-76
2022/06/06 00:58:09;;;;;;;5.57;2.50;;;19.70;78.90;;;;;;4877520;29;20500;-75
2022/06/06 01:00:38;;;;;;;6.60;2.50;;;19.60;78.90;;;;;;4887865;29;20488;-76
2022/06/06 01:03:08;;;;;;;4.97;2.60;;;19.60;78.90;;;;;;4890341;29;20458;-75
2022/06/06 01:05:37;;;;;;;4.50;2.40;;;19.60;78.90;;;;;;4887078;29;20585;-75
2022/06/06 01:08:07;;;;;;;4.20;2.13;;;19.60;78.80;;;;;;4891024;29;20470;-75
2022/06/06 01:10:35;;;;;;;4.13;2.13;;;19.60;78.90;;;;;;4888495;29;20456;-75
2022/06/06 01:13:05;;;;;;;5.63;3.00;;;19.60;78.90;;;;;;4891965;29;21027;-75
2022/06/06 01:15:44;;;;;;;6.30;2.43;;;19.60;78.80;;;;;;4887751;29;20464;-75
2022/06/06 01:18:19;;;;;;;5.10;2.50;;;19.50;78.90;;;;;;4882482;29;20486;-75
2022/06/06 01:21:19;;;;;;;5.60;3.07;;;19.50;78.80;;;;;;4872028;29;20464;-75
2022/06/06 01:24:06;;;;;;;7.00;2.60;;;19.50;78.90;;;;;;4892953;29;20468;-75
2022/06/06 01:26:53;;;;;;;5.67;2.80;;;19.50;78.90;;;;;;4880692;29;20495;-75
2022/06/06 01:29:26;;;;;;;7.80;3.37;;;19.50;78.90;;;;;;4892796;29;20457;-75
2022/06/06 01:32:00;;;;;;;5.23;2.87;;;19.40;78.90;;;;;;4863762;29;20511;-75
2022/06/06 01:34:33;;;;;;;6.53;2.93;;;19.40;78.90;;;;;;4881896;29;21008;-75
2022/06/06 01:37:02;;;;;;;5.07;3.17;;;19.40;78.90;;;;;;4893108;29;20564;-75
2022/06/06 01:39:32;;;;;;;4.83;2.90;;;19.40;79.00;;;;;;4880901;29;20467;-75
2022/06/06 01:42:09;;;;;;;5.43;3.10;;;19.40;79.00;;;;;;4872347;29;20566;-75
2022/06/06 01:44:43;;;;;;;9.90;3.23;;;19.40;79.00;;;;;;4861180;29;20476;-76
2022/06/06 01:47:15;;;;;;;6.63;3.00;;;19.30;79.00;;;;;;4882983;29;20478;-76
2022/06/06 01:49:44;;;;;;;5.10;3.10;;;19.30;79.00;;;;;;4888230;29;20834;-76
2022/06/06 01:52:15;;;;;;;6.73;3.30;;;19.30;79.00;;;;;;4877736;29;20472;-76
2022/06/06 01:54:44;;;;;;;8.10;3.93;;;19.30;79.00;;;;;;4880798;29;20488;-76
2022/06/06 01:57:15;;;;;;;8.80;3.57;;;19.30;79.00;;;;;;4881474;29;21141;-75
2022/06/06 01:59:45;;;;;;;6.37;3.80;;;19.30;79.00;;;;;;4878084;29;20480;-76
2022/06/06 02:02:13;;;;;;;6.40;3.47;;;19.30;79.00;;;;;;4870617;29;20497;-75
2022/06/06 02:04:40;;;;;;;9.23;3.50;;;19.20;79.10;;;;;;4862809;29;20513;-76
2022/06/06 02:07:09;;;;;;;6.50;4.30;;;19.20;79.20;;;;;;4884326;29;20858;-75
2022/06/06 02:09:37;;;;;;;6.40;3.80;;;19.20;79.20;;;;;;4870603;29;20472;-75
2022/06/06 02:12:05;;;;;;;8.03;4.10;;;19.20;79.20;;;;;;4881633;29;20834;-75
2022/06/06 02:14:34;;;;;;;6.73;3.80;;;19.20;79.30;;;;;;4888543;29;20494;-75
2022/06/06 02:17:03;;;;;;;5.60;2.90;;;19.20;79.20;;;;;;4861378;29;20498;-76
2022/06/06 02:19:31;;;;;;;11.80;4.80;;;19.20;79.20;;;;;;4864867;29;20477;-76
2022/06/06 02:21:59;;;;;;;7.30;4.43;;;19.10;79.20;;;;;;4868701;29;20849;-77
2022/06/06 02:24:27;;;;;;;7.10;3.77;;;19.10;79.20;;;;;;4882104;29;21208;-75
2022/06/06 02:26:55;;;;;;;5.63;3.40;;;19.10;79.20;;;;;;4887749;29;20482;-74
2022/06/06 02:29:24;;;;;;;7.17;4.03;;;19.10;79.30;;;;;;4864067;29;22300;-75
2022/06/06 02:31:52;;;;;;;6.57;3.30;;;19.10;79.30;;;;;;4889108;29;20485;-77
2022/06/06 02:34:21;;;;;;;7.20;4.27;;;19.10;79.20;;;;;;4884043;29;20499;-77
2022/06/06 02:36:49;;;;;;;6.50;3.90;;;19.10;79.10;;;;;;4879849;29;20498;-76
2022/06/06 02:39:17;;;;;;;6.33;3.33;;;19.00;79.10;;;;;;4883486;29;20481;-75
2022/06/06 02:41:45;;;;;;;7.47;3.43;;;19.00;79.20;;;;;;4883130;29;20464;-76
2022/06/06 02:44:13;;;;;;;7.90;4.30;;;18.90;79.20;;;;;;4878445;29;20463;-75
2022/06/06 02:46:41;;;;;;;7.77;4.20;;;18.90;79.30;;;;;;4881205;29;20495;-75
2022/06/06 02:49:09;;;;;;;7.77;4.57;;;18.90;79.20;;;;;;4883867;29;20454;-75
2022/06/06 02:51:38;;;;;;;7.10;4.00;;;18.90;79.20;;;;;;4867120;29;20470;-75
2022/06/06 02:54:06;;;;;;;7.33;3.50;;;18.80;79.20;;;;;;4889023;29;20482;-75
2022/06/06 02:56:35;;;;;;;9.73;3.70;;;18.80;79.30;;;;;;4884047;29;20503;-76
2022/06/06 02:59:08;;;;;;;5.53;3.93;;;18.80;79.30;;;;;;4889710;29;20906;-75
2022/06/06 03:01:36;;;;;;;5.47;3.60;;;18.70;79.20;;;;;;4886347;29;20474;-75
2022/06/06 03:04:04;;;;;;;9.90;5.13;;;18.70;79.20;;;;;;4890810;29;20630;-75
2022/06/06 03:06:44;;;;;;;6.80;4.67;;;18.70;79.10;;;;;;4885697;29;21008;-75
2022/06/06 03:09:32;;;;;;;5.77;4.07;;;18.70;79.10;;;;;;4880700;29;21924;-75
2022/06/06 03:12:24;;;;;;;8.70;4.43;;;18.60;78.90;;;;;;4882046;29;21031;-75
2022/06/06 03:15:25;;;;;;;9.20;4.23;;;18.60;79.00;;;;;;4892602;29;20545;-75
2022/06/06 03:21:19;;;;;;;7.30;4.20;;;18.50;79.10;;;;;;4884051;29;20911;-76
2022/06/06 03:24:21;;;;;;;8.80;4.77;;;18.50;79.10;;;;;;4891507;29;20480;-74
2022/06/06 03:27:04;;;;;;;7.40;4.60;;;18.40;79.00;;;;;;4894703;29;20477;-76
2022/06/06 03:29:43;;;;;;;8.10;5.10;;;18.40;79.20;;;;;;4881761;29;20463;-75
2022/06/06 03:32:20;;;;;;;6.73;4.70;;;18.40;79.20;;;;;;4865176;29;20477;-75
2022/06/06 03:34:57;;;;;;;10.17;5.23;;;18.40;79.30;;;;;;4855727;29;20482;-74
2022/06/06 03:37:31;;;;;;;7.20;5.03;;;18.40;79.50;;;;;;4892739;29;21400;-74
2022/06/06 03:40:12;;;;;;;7.20;5.03;;;18.50;79.50;;;;;;4888770;29;20470;-74
2022/06/06 03:42:53;;;;;;;7.97;5.30;;;18.50;79.60;;;;;;4891092;29;20455;-74
2022/06/06 03:45:27;;;;;;;9.70;5.70;;;18.50;79.70;;;;;;4881602;29;20956;-75
2022/06/06 03:48:06;;;;;;;8.60;5.20;;;18.60;79.60;;;;;;4893053;29;20716;-74
2022/06/06 03:50:43;;;;;;;8.50;5.53;;;18.60;79.50;;;;;;4884943;29;20451;-75
2022/06/06 03:53:16;;;;;;;10.90;5.50;;;18.60;79.50;;;;;;4882762;29;20468;-74
2022/06/06 03:56:00;;;;;;;8.57;5.47;;;18.50;79.60;;;;;;4888212;29;20854;-75
2022/06/06 03:58:32;;;;;;;8.93;5.97;;;18.50;79.30;;;;;;4871764;29;20470;-75
2022/06/06 04:01:03;;;;;;;10.53;5.47;;;18.40;79.40;;;;;;4867972;29;20478;-76
2022/06/06 04:03:33;;;;;;;7.10;4.97;;;18.30;79.60;;;;;;4864741;29;21027;-76
2022/06/06 04:06:03;;;;;;;7.40;5.27;;;18.30;79.80;;;;;;4888605;29;20455;-76
2022/06/06 04:08:32;;;;;;;11.10;6.60;;;18.30;79.90;;;;;;4868726;29;20462;-76
2022/06/06 04:11:13;;;;;;;8.77;5.70;;;18.30;80.00;;;;;;4862385;29;21023;-77
2022/06/06 04:13:48;;;;;;;11.50;5.40;;;18.40;80.00;;;;;;4888215;29;20952;-76
2022/06/06 04:16:25;;;;;;;7.33;5.20;;;18.50;80.10;;;;;;4886449;29;20482;-76
2022/06/06 04:19:01;;;;;;;9.33;6.10;;;18.50;80.10;;;;;;4875562;29;20526;-75
2022/06/06 04:21:37;;;;;;;7.47;5.50;;;18.60;80.10;;;;;;4888788;29;20478;-75
2022/06/06 04:24:18;;;;;;;7.73;5.70;;;18.80;80.10;;;;;;4878530;29;20842;-75
2022/06/06 04:26:57;;;;;;;6.90;5.10;;;18.90;80.00;;;;;;4889672;29;20490;-76
2022/06/06 04:29:37;;;;;;;9.10;5.30;;;19.00;80.00;;;;;;4884964;29;20984;-76
2022/06/06 04:32:15;;;;;;;7.70;5.30;;;19.10;80.10;;;;;;4879765;29;20492;-76
2022/06/06 04:34:51;;;;;;;9.80;5.93;;;19.20;80.00;;;;;;4881953;29;20467;-75
2022/06/06 04:37:24;;;;;;;8.03;5.50;;;19.30;79.90;;;;;;4888050;29;20995;-75
2022/06/06 04:39:59;;;;;;;9.50;5.93;;;19.50;79.70;;;;;;4878922;29;20467;-76
2022/06/06 04:42:35;;;;;;;7.30;5.20;;;19.60;79.70;;;;;;4884102;29;20482;-76
2022/06/06 04:45:16;;;;;;;9.10;6.10;;;19.70;79.70;;;;;;4883776;29;20528;-76
2022/06/06 04:47:44;;;;;;;9.73;5.23;;;19.80;79.50;;;;;;4885523;29;20850;-76
2022/06/06 04:50:16;;;;;;;9.50;5.37;;;20.00;79.50;;;;;;4886544;29;20470;-75
2022/06/06 04:52:52;;;;;;;9.20;5.70;;;20.10;79.30;;;;;;4886805;29;20483;-76
2022/06/06 04:55:23;;;;;;;8.50;5.73;;;20.20;79.20;;;;;;4886345;29;21026;-76
2022/06/06 04:57:56;;;;;;;6.83;4.90;;;20.30;78.90;;;;;;4889719;29;21021;-75
2022/06/06 05:00:25;;;;;;;8.13;5.70;;;20.30;78.70;;;;;;4884029;29;20528;-76
2022/06/06 05:02:53;;;;;;;10.93;6.23;;;20.40;78.70;;;;;;4889395;29;20476;-76
2022/06/06 05:05:26;;;;;;;8.83;5.60;;;20.40;78.40;;;;;;4887247;29;20470;-76
2022/06/06 05:08:12;;;;;;;7.97;5.50;;;20.40;78.30;;;;;;4886591;29;20485;-76
2022/06/06 05:10:59;;;;;;;11.90;5.67;;;20.50;78.40;;;;;;4881708;29;20562;-77
2022/06/06 05:13:42;;;;;;;9.37;5.60;;;20.60;78.50;;;;;;4888860;29;20475;-75
2022/06/06 05:16:27;;;;;;;10.00;5.30;;;20.80;78.50;;;;;;4862301;29;20484;-76
2022/06/06 05:19:46;;;;;;;9.77;5.23;;;20.90;78.50;;;;;;4887629;29;20515;-76
2022/06/06 05:22:44;;;;;;;8.53;4.77;;;21.10;78.40;;;;;;4829480;29;20479;-76
2022/06/06 05:25:41;;;;;;;8.00;5.70;;;21.30;78.10;;;;;;4877479;29;20484;-76
2022/06/06 05:28:32;;;;;;;7.10;4.77;;;21.50;78.00;;;;;;4882140;29;20505;-74
2022/06/06 05:31:08;;;;;;;7.00;5.30;;;21.60;78.10;;;;;;4883291;29;20485;-76
2022/06/06 05:33:42;;;;;;;8.83;5.40;;;21.90;78.70;;;;;;4874406;29;20504;-76
2022/06/06 05:36:42;;;;;;;9.03;4.93;;;22.20;79.00;;;;;;4872136;29;20532;-76
2022/06/06 05:39:39;;;;;;;9.53;5.77;;;23.00;78.30;;;;;;4877274;29;20471;-76
2022/06/06 05:42:19;;;;;;;6.43;4.30;;;23.90;75.30;;;;;;4860144;29;20996;-74
2022/06/06 05:45:00;;;;;;;7.67;4.77;;;24.70;73.50;;;;;;4883681;29;20493;-76
2022/06/06 05:47:38;;;;;;;8.47;5.00;;;25.40;72.20;;;;;;4885103;29;21214;-75
2022/06/06 05:50:20;;;;;;;8.00;5.00;;;26.20;71.00;;;;;;4874470;29;20844;-75
2022/06/06 05:53:07;;;;;;;8.53;5.50;;;26.90;69.10;;;;;;4881734;29;20467;-75
2022/06/06 05:55:50;;;;;;;7.97;5.40;;;26.90;68.00;;;;;;4883879;29;20490;-76
2022/06/06 05:58:37;;;;;;;6.77;4.83;;;27.00;68.20;;;;;;4886429;29;20546;-75
2022/06/06 06:01:17;;;;;;;8.57;5.60;;;27.20;67.50;;;;;;4877476;29;20470;-77
2022/06/06 06:04:14;;;;;;;7.90;5.30;;;27.40;67.20;;;;;;4883349;29;20539;-76
2022/06/06 06:06:54;;;;;;;8.57;4.87;;;27.30;65.40;;;;;;4888192;29;20512;-75
2022/06/06 06:09:44;;;;;;;8.03;5.30;;;26.80;65.40;;;;;;4866701;29;20491;-74
2022/06/06 06:12:30;;;;;;;6.37;4.73;;;26.20;65.90;;;;;;4884214;29;20468;-75
2022/06/06 06:15:10;;;;;;;9.30;5.57;;;25.70;66.10;;;;;;4885571;29;20454;-74
2022/06/06 06:17:40;;;;;;;7.47;5.13;;;25.20;67.00;;;;;;4877627;29;20495;-76
2022/06/06 06:20:12;;;;;;;6.73;4.43;;;24.90;67.50;;;;;;4890055;29;20468;-75
2022/06/06 06:22:42;;;;;;;8.50;5.13;;;24.70;68.20;;;;;;4880707;29;20465;-76
2022/06/06 06:25:11;;;;;;;7.43;5.10;;;24.50;68.60;;;;;;4868506;29;20472;-76
2022/06/06 06:27:41;;;;;;;7.60;4.80;;;24.40;69.00;;;;;;4884934;29;20484;-76
2022/06/06 06:30:09;;;;;;;7.20;5.27;;;24.30;69.10;;;;;;4881961;29;20472;-76
2022/06/06 06:32:50;;;;;;;8.03;5.23;;;24.20;69.10;;;;;;4881737;29;20866;-74
2022/06/06 06:35:26;;;;;;;7.60;5.60;;;24.00;68.80;;;;;;4884752;29;20481;-74
2022/06/06 06:38:08;;;;;;;8.93;6.07;;;23.80;68.90;;;;;;4882445;29;20486;-76
2022/06/06 06:40:53;;;;;;;10.90;6.07;;;23.50;69.20;;;;;;4887985;29;20534;-75
2022/06/06 06:43:41;;;;;;;12.70;6.40;;;23.20;69.50;;;;;;4855666;29;20468;-75
2022/06/06 06:46:14;;;;;;;9.43;6.50;;;23.00;70.00;;;;;;4874604;29;20585;-76
2022/06/06 06:48:46;;;;;;;8.60;6.07;;;22.90;70.40;;;;;;4871354;29;20482;-74
2022/06/06 06:51:22;;;;;;;9.30;5.87;;;22.80;70.70;;;;;;4872174;29;20474;-75
2022/06/06 06:54:12;;;;;;;9.40;6.13;;;22.70;70.90;;;;;;4865953;29;20460;-74
2022/06/06 06:56:53;;;;;;;12.70;6.40;;;22.70;71.00;;;;;;4876151;29;21008;-75
2022/06/06 06:59:33;;;;;;;7.70;5.03;;;22.60;71.20;;;;;;4879996;29;20470;-74
2022/06/06 07:11:13;;;;;;;7.50;5.73;;;22.30;71.80;;;;;;4888510;29;20465;-75
2022/06/06 07:13:56;;;;;;;10.17;6.80;;;22.20;72.10;;;;;;4879860;29;20470;-76
2022/06/06 07:16:25;;;;;;;9.60;6.43;;;22.20;72.20;;;;;;4883007;29;20490;-77
2022/06/06 07:19:00;;;;;;;9.90;6.30;;;22.20;72.20;;;;;;4883522;29;20531;-76
2022/06/06 07:21:28;;;;;;;9.00;6.30;;;22.10;72.30;;;;;;4870931;29;20486;-76
2022/06/06 07:24:01;;;;;;;10.60;6.83;;;22.00;72.40;;;;;;4876142;29;20826;-76
2022/06/06 07:26:29;;;;;;;9.23;5.93;;;21.80;72.50;;;;;;4875688;29;20492;-76
2022/06/06 07:28:57;;;;;;;11.23;7.00;;;21.70;72.60;;;;;;4882450;29;20912;-74
2022/06/06 07:31:38;;;;;;;9.60;5.50;;;21.60;72.80;;;;;;4876868;29;20483;-76
2022/06/06 07:34:20;;;;;;;9.90;5.90;;;21.50;73.20;;;;;;4879271;29;20475;-76
2022/06/06 07:37:04;;;;;;;9.70;6.53;;;21.50;73.40;;;;;;4880513;29;20861;-76
2022/06/06 07:39:48;;;;;;;7.90;6.03;;;21.40;73.70;;;;;;4875582;29;20474;-76
2022/06/06 07:42:34;;;;;;;10.77;6.13;;;21.40;74.00;;;;;;4879588;29;20466;-74
2022/06/06 07:45:17;;;;;;;7.50;6.00;;;21.30;74.30;;;;;;4881847;29;20476;-76
2022/06/06 07:48:03;;;;;;;8.97;6.27;;;21.30;74.40;;;;;;4883921;29;20498;-76
2022/06/06 07:50:38;;;;;;;8.20;5.73;;;21.40;74.80;;;;;;4879500;29;20551;-75
2022/06/06 07:53:15;;;;;;;9.33;5.50;;;21.40;74.70;;;;;;4881629;29;20959;-76
2022/06/06 07:55:49;;;;;;;8.40;6.20;;;21.40;74.80;;;;;;4887866;29;20513;-76
2022/06/06 07:58:21;;;;;;;11.20;6.13;;;21.50;74.90;;;;;;4853552;29;20556;-75
2022/06/06 08:01:02;;;;;;;12.83;7.17;;;21.50;74.90;;;;;;4881790;29;21121;-76
2022/06/06 08:03:41;;;;;;;11.10;6.10;;;21.50;74.80;;;;;;4881866;29;20499;-74
2022/06/06 08:06:31;;;;;;;10.13;6.30;;;21.50;74.80;;;;;;4860079;29;20551;-76
2022/06/06 08:09:13;;;;;;;10.50;6.63;;;21.50;74.90;;;;;;4864297;29;20480;-75
2022/06/06 08:11:59;;;;;;;10.03;6.33;;;21.50;75.10;;;;;;4892677;29;21173;-76
2022/06/06 08:14:40;;;;;;;10.90;6.37;;;21.50;75.20;;;;;;4884869;29;20463;-75
2022/06/06 08:17:18;;;;;;;10.80;6.40;;;21.60;75.20;;;;;;4883251;29;20597;-75
2022/06/06 08:19:59;;;;;;;7.53;5.43;;;21.60;75.20;;;;;;4882776;29;20478;-76
2022/06/06 08:22:27;;;;;;;7.80;5.90;;;21.60;75.10;;;;;;4863332;29;20467;-75
2022/06/06 08:24:59;;;;;;;8.23;6.23;;;21.60;75.20;;;;;;4891911;29;20984;-76
2022/06/06 08:27:36;;;;;;;8.50;5.50;;;21.60;75.30;;;;;;4885148;29;21388;-76
2022/06/06 08:30:05;;;;;;;8.47;6.47;;;21.60;75.40;;;;;;4880462;29;20851;-75
2022/06/06 08:32:35;;;;;;;8.57;5.80;;;21.60;75.40;;;;;;4876348;29;20473;-75
2022/06/06 08:35:03;;;;;;;8.67;5.70;;;21.60;75.30;;;;;;4882759;29;20467;-74
2022/06/06 08:37:52;;;;;;;9.80;6.40;;;21.70;75.40;;;;;;4880084;29;20501;-76
2022/06/06 08:40:45;;;;;;;8.90;6.10;;;21.70;75.40;;;;;;4871279;29;20478;-75
2022/06/06 08:43:19;;;;;;;7.83;5.73;;;21.80;75.40;;;;;;4874308;29;20460;-74
2022/06/06 08:45:52;;;;;;;8.47;6.03;;;21.80;75.40;;;;;;4880583;29;20491;-76
2022/06/06 08:48:41;;;;;;;6.90;5.13;;;21.90;75.30;;;;;;4876181;29;20490;-76
2022/06/06 08:51:23;;;;;;;7.00;5.20;;;21.90;75.20;;;;;;4870759;29;20486;-74
2022/06/06 08:54:22;;;;;;;12.13;6.73;;;21.90;75.10;;;;;;4881768;29;20469;-76
2022/06/06 08:57:25;;;;;;;7.10;4.63;;;21.90;75.10;;;;;;4858636;29;20509;-76
2022/06/06 09:00:20;;;;;;;7.63;5.43;;;21.90;74.90;;;;;;4878551;29;20475;-74
2022/06/06 09:03:26;;;;;;;7.33;4.67;;;21.90;74.80;;;;;;4868796;29;20825;-74
2022/06/06 09:06:21;;;;;;;7.30;4.40;;;21.80;74.80;;;;;;4872655;29;20856;-75
2022/06/06 09:09:29;;;;;;;7.67;4.80;;;21.90;75.00;;;;;;4876723;29;20455;-76
2022/06/06 09:12:47;;;;;;;5.60;3.53;;;22.00;74.90;;;;;;4877171;29;20499;-77
2022/06/06 09:15:47;;;;;;;7.27;4.60;;;22.10;74.80;;;;;;4860495;29;20853;-75
2022/06/06 09:18:51;;;;;;;7.60;4.60;;;22.20;74.60;;;;;;4868508;29;20483;-76
2022/06/06 09:21:47;;;;;;;7.40;4.73;;;22.30;74.00;;;;;;4857487;29;20489;-77
2022/06/06 09:24:57;;;;;;;6.80;4.40;;;22.30;74.00;;;;;;4871560;29;20466;-76
2022/06/06 09:28:08;;;;;;;9.73;4.40;;;22.30;74.00;;;;;;4859552;29;20484;-76
2022/06/06 09:31:08;;;;;;;7.13;3.90;;;22.30;73.80;;;;;;4865869;29;20849;-77
2022/06/06 09:34:16;;;;;;;6.70;4.20;;;22.20;73.40;;;;;;4881604;29;20466;-77
2022/06/06 09:36:47;;;;;;;6.70;4.07;;;22.10;73.30;;;;;;4874676;29;20489;-76
2022/06/06 09:39:33;;;;;;;6.90;4.40;;;22.10;73.30;;;;;;4874786;29;20588;-76
2022/06/06 09:42:12;;;;;;;6.23;3.97;;;22.00;73.40;;;;;;4875849;29;20463;-78
2022/06/06 09:45:09;;;;;;;7.13;3.67;;;22.10;73.60;;;;;;4865180;29;20525;-77
2022/06/06 09:48:17;;;;;;;5.70;3.50;;;22.10;73.40;;;;;;4875202;29;20487;-78
2022/06/06 09:51:07;;;;;;;9.50;3.20;;;22.20;72.90;;;;;;4875662;29;20471;-77
2022/06/06 10:00:23;;;;;;;6.17;3.87;;;22.40;73.00;;;;;;4880562;29;21088;-77
2022/06/06 10:03:25;;;;;;;6.10;4.20;;;22.50;72.90;;;;;;4886182;29;20460;-76
2022/06/06 10:06:32;;;;;;;7.20;4.00;;;22.50;72.60;;;;;;4879580;29;21074;-77
2022/06/06 10:09:24;;;;;;;5.60;4.13;;;22.60;72.40;;;;;;4858912;29;20465;-75
2022/06/06 10:12:29;;;;;;;8.37;4.63;;;22.70;72.20;;;;;;4879087;29;20481;-77
2022/06/06 10:15:13;;;;;;;6.60;3.63;;;22.70;72.10;;;;;;4893782;29;20495;-77
2022/06/06 10:18:03;;;;;;;7.90;4.40;;;22.70;72.00;;;;;;4884852;29;20490;-76
2022/06/06 10:20:49;;;;;;;9.80;3.83;;;22.80;71.60;;;;;;4889180;29;20457;-78
2022/06/06 10:23:41;;;;;;;5.30;3.67;;;22.80;70.90;;;;;;4883917;29;20463;-76
2022/06/06 10:26:40;;;;;;;5.30;3.07;;;22.80;71.10;;;;;;4883542;29;21227;-76
2022/06/06 10:32:50;;;;;;;5.40;3.00;;;22.90;70.70;;;;;;4872594;29;20474;-77
2022/06/06 10:35:29;;;;;;;6.43;3.00;;;22.90;70.60;;;;;;4874591;29;20480;-76
2022/06/06 10:38:18;;;;;;;5.90;3.40;;;23.00;70.20;;;;;;4873215;29;20508;-76
2022/06/06 10:41:04;;;;;;;8.93;4.77;;;23.00;70.00;;;;;;4872534;29;20468;-77
2022/06/06 10:44:00;;;;;;;6.70;3.63;;;22.90;69.80;;;;;;4858296;29;20515;-77
2022/06/06 10:46:38;;;;;;;10.13;3.50;;;23.00;69.50;;;;;;4859037;29;20570;-76
2022/06/06 10:49:16;;;;;;;5.27;3.50;;;23.00;69.50;;;;;;4889505;29;20971;-74
2022/06/06 10:52:21;;;;;;;7.07;3.37;;;23.00;69.40;;;;;;4873530;29;20471;-76
2022/06/06 10:55:24;;;;;;;9.20;4.30;;;23.00;69.20;;;;;;4865699;29;20475;-76
2022/06/06 10:58:25;;;;;;;7.17;3.77;;;23.00;69.00;;;;;;4871989;29;20884;-76
2022/06/06 11:01:25;;;;;;;6.47;4.03;;;23.10;69.10;;;;;;4874649;29;20542;-77
2022/06/06 11:04:21;;;;;;;5.77;3.67;;;23.20;68.80;;;;;;4861683;29;20526;-75
2022/06/06 11:07:28;;;;;;;7.90;3.83;;;23.20;68.50;;;;;;4860990;29;20504;-76
2022/06/06 11:10:17;;;;;;;7.50;4.30;;;23.20;68.30;;;;;;4834391;29;20480;-75
2022/06/06 11:13:30;;;;;;;6.97;3.67;;;23.20;68.10;;;;;;4871128;29;20462;-75
2022/06/06 11:16:29;;;;;;;7.70;3.73;;;23.20;67.90;;;;;;4874632;29;20498;-77
2022/06/06 11:19:31;;;;;;;5.60;3.90;;;23.20;68.00;;;;;;4856301;29;21010;-77
2022/06/06 11:22:24;;;;;;;7.13;3.50;;;23.10;67.30;;;;;;4872619;29;20455;-77
2022/06/06 11:25:01;;;;;;;7.00;3.30;;;23.00;67.70;;;;;;4872548;29;20458;-76
2022/06/06 11:28:15;;;;;;;5.20;3.60;;;23.00;67.90;;;;;;4875689;29;20501;-77
2022/06/06 11:31:16;;;;;;;7.10;4.27;;;23.00;67.80;;;;;;4881850;29;20481;-77
2022/06/06 11:34:28;;;;;;;5.57;3.60;;;23.00;67.90;;;;;;4882731;29;20535;-76
2022/06/06 11:37:26;;;;;;;8.97;4.63;;;22.90;67.70;;;;;;4844144;29;20552;-76
2022/06/06 11:40:22;;;;;;;15.13;4.00;;;22.90;67.80;;;;;;4858319;29;20651;-76
2022/06/06 11:43:12;;;;;;;5.43;3.67;;;22.90;67.70;;;;;;4876290;29;20864;-78
2022/06/06 11:46:07;;;;;;;7.27;3.23;;;22.90;67.60;;;;;;4874366;29;20486;-75
2022/06/06 11:49:04;;;;;;;5.30;3.63;;;22.80;67.50;;;;;;4880661;29;20466;-76
2022/06/06 11:51:53;;;;;;;5.97;3.53;;;22.70;67.60;;;;;;4840752;29;20560;-75
2022/06/06 11:54:48;;;;;;;5.37;3.47;;;22.70;67.60;;;;;;4875729;29;20547;-77
2022/06/06 11:57:35;;;;;;;6.40;3.93;;;22.70;67.50;;;;;;4878827;29;21028;-77
2022/06/06 12:00:21;;;;;;;7.00;3.40;;;22.60;67.80;;;;;;4876723;29;20539;-75
2022/06/06 12:03:26;;;;;;;8.33;3.47;;;22.60;67.90;;;;;;4883184;29;20473;-76
2022/06/06 12:06:46;;;;;;;5.97;3.53;;;22.60;67.80;;;;;;4887491;29;20463;-76
2022/06/06 12:09:25;;;;;;;6.17;3.13;;;22.60;67.90;;;;;;4806251;29;20469;-75
2022/06/06 12:12:43;;;;;;;5.90;3.47;;;22.70;68.00;;;;;;4875258;29;20500;-76
2022/06/06 12:15:28;;;;;;;5.40;3.77;;;22.70;67.80;;;;;;4857500;29;20478;-76
2022/06/06 12:18:17;;;;;;;7.50;3.80;;;22.70;67.80;;;;;;4858997;29;20479;-75
2022/06/06 12:21:25;;;;;;;7.20;3.80;;;22.70;67.80;;;;;;4876950;29;21182;-77
2022/06/06 12:24:20;;;;;;;8.20;3.33;;;22.70;67.70;;;;;;4858180;29;20826;-75
2022/06/06 12:27:08;;;;;;;8.87;3.63;;;22.70;67.80;;;;;;4872703;29;20596;-75
2022/06/06 12:29:55;;;;;;;7.23;4.30;;;22.70;67.80;;;;;;4871185;29;20473;-76
2022/06/06 12:32:58;;;;;;;5.97;3.47;;;22.80;67.70;;;;;;4869660;29;20855;-77
2022/06/06 12:35:36;;;;;;;8.90;3.50;;;22.80;67.70;;;;;;4871334;29;20501;-77
2022/06/06 12:38:15;;;;;;;9.87;3.87;;;22.80;67.90;;;;;;4858903;29;21031;-77
2022/06/06 12:41:01;;;;;;;6.50;3.37;;;22.70;67.80;;;;;;4872379;29;20512;-77
2022/06/06 12:43:44;;;;;;;7.00;3.90;;;22.70;67.80;;;;;;4871868;29;20473;-75
2022/06/06 12:46:36;;;;;;;6.47;3.40;;;22.50;68.10;;;;;;4875039;29;20481;-75
2022/06/06 12:49:34;;;;;;;6.17;3.50;;;22.40;68.20;;;;;;4873332;29;20468;-77
2022/06/06 12:52:21;;;;;;;5.63;3.40;;;22.20;68.60;;;;;;4880277;29;21083;-76
2022/06/06 12:58:07;;;;;;;6.13;3.87;;;21.90;68.90;;;;;;4848184;29;20864;-77
2022/06/06 13:03:38;;;;;;;6.10;4.10;;;21.50;69.20;;;;;;4878799;29;21182;-77
2022/06/06 13:06:18;;;;;;;6.20;3.67;;;21.40;69.60;;;;;;4871728;29;20460;-76
2022/06/06 13:09:04;;;;;;;6.60;3.50;;;21.30;69.70;;;;;;4874338;29;20475;-76
2022/06/06 13:11:49;;;;;;;5.30;3.40;;;21.30;69.90;;;;;;4869282;29;22351;-76
2022/06/06 13:14:58;;;;;;;5.57;3.63;;;21.30;70.10;;;;;;4869133;29;20471;-76
2022/06/06 13:17:38;;;;;;;5.57;3.60;;;21.30;70.40;;;;;;4796920;29;20496;-75
2022/06/06 13:20:20;;;;;;;7.27;3.97;;;21.30;70.40;;;;;;4866251;29;21165;-76
2022/06/06 13:23:12;;;;;;;7.60;4.00;;;21.30;70.60;;;;;;4880089;29;20468;-77
2022/06/06 13:25:52;;;;;;;6.90;3.60;;;21.20;70.70;;;;;;4855057;29;20489;-76
2022/06/06 13:28:25;;;;;;;7.10;4.37;;;21.20;71.00;;;;;;4873149;29;20496;-75
2022/06/06 13:31:12;;;;;;;5.50;3.47;;;21.20;71.10;;;;;;4871027;29;20471;-75
2022/06/06 13:34:04;;;;;;;6.37;3.80;;;21.20;71.70;;;;;;4873286;29;20477;-74
2022/06/06 13:36:47;;;;;;;8.30;3.87;;;21.40;71.90;;;;;;4875989;29;20483;-76
2022/06/06 13:39:31;;;;;;;5.37;3.43;;;21.50;71.90;;;;;;4853387;29;20960;-77
2022/06/06 13:42:08;;;;;;;6.53;3.90;;;21.70;71.70;;;;;;4872356;29;20484;-75
2022/06/06 13:45:03;;;;;;;6.43;3.33;;;21.80;71.60;;;;;;4871085;29;20476;-75
2022/06/06 13:47:56;;;;;;;6.40;3.27;;;21.90;71.50;;;;;;4879862;29;20499;-75
2022/06/06 13:50:32;;;;;;;5.40;3.10;;;22.00;71.40;;;;;;4880885;29;20474;-75
2022/06/06 13:53:33;;;;;;;7.60;3.20;;;22.00;71.40;;;;;;4871190;29;20462;-76
2022/06/06 13:56:21;;;;;;;7.97;3.40;;;22.10;71.50;;;;;;4844352;29;20479;-75
2022/06/06 13:58:59;;;;;;;4.80;2.80;;;22.30;71.30;;;;;;4873265;29;20487;-75
2022/06/06 14:01:39;;;;;;;4.60;2.40;;;22.40;71.10;;;;;;4867361;29;20484;-78
2022/06/06 14:04:34;;;;;;;4.80;2.90;;;22.50;70.80;;;;;;4883371;29;20475;-76
2022/06/06 14:07:17;;;;;;;5.57;2.90;;;22.50;70.40;;;;;;4876572;29;20521;-78
2022/06/06 14:09:47;;;;;;;4.40;2.10;;;22.50;70.50;;;;;;4876391;29;20465;-75
2022/06/06 14:12:30;;;;;;;4.67;2.77;;;22.60;70.40;;;;;;4874108;29;20483;-77
2022/06/06 14:15:03;;;;;;;6.03;2.70;;;22.60;70.00;;;;;;4883571;29;21055;-77
2022/06/06 14:17:34;;;;;;;6.90;2.63;;;22.60;70.00;;;;;;4850411;29;20494;-77
2022/06/06 14:20:12;;;;;;;6.37;2.87;;;22.60;70.10;;;;;;4856176;29;20489;-75
2022/06/06 14:22:41;;;;;;;5.10;2.70;;;22.70;70.00;;;;;;4859012;29;20483;-75
2022/06/06 14:25:11;;;;;;;6.30;2.57;;;22.70;69.90;;;;;;4879529;29;20537;-76
2022/06/06 14:27:40;;;;;;;4.07;2.20;;;22.80;69.80;;;;;;4877522;29;20496;-76
2022/06/06 14:30:14;;;;;;;4.70;2.20;;;22.80;69.70;;;;;;4878276;29;20491;-76
2022/06/06 14:32:56;;;;;;;5.90;2.20;;;22.80;69.40;;;;;;4877197;29;20477;-76